createdAt,value
2019-01-17T00:01:53.037Z,4.20
2019-01-17T00:04:38.762Z,4.73
2019-01-17T00:07:16.691Z,4.53
2019-01-17T00:09:51.234Z,4.83
2019-01-17T00:12:42.446Z,4.57
2019-01-17T00:15:24.037Z,4.57
2019-01-17T00:18:09.684Z,3.97
2019-01-17T00:20:56.648Z,4.10
2019-01-17T00:23:42.176Z,4.60
2019-01-17T00:26:35.283Z,4.27
2019-01-17T00:29:22.410Z,3.63
2019-01-17T00:32:01.429Z,3.83
2019-01-17T00:34:48.393Z,3.87
2019-01-17T00:37:41.137Z,3.67
2019-01-17T00:40:38.948Z,4.33
2019-01-17T00:43:24.806Z,4.07
2019-01-17T00:46:10.538Z,3.93
2019-01-17T00:49:07.010Z,3.03
2019-01-17T00:52:02.723Z,4.27
2019-01-17T00:55:07.856Z,4.07
2019-01-17T00:57:58.010Z,5.03
2019-01-17T01:00:47.437Z,5.80
2019-01-17T01:03:33.020Z,5.07
2019-01-17T01:06:18.896Z,4.57
2019-01-17T01:09:08.970Z,5.80
2019-01-17T01:11:54.472Z,6.07
2019-01-17T01:14:40.490Z,5.70
2019-01-17T01:17:32.001Z,5.83
2019-01-17T01:20:09.732Z,6.00
2019-01-17T01:22:59.338Z,6.63
2019-01-17T01:25:49.074Z,5.17
2019-01-17T01:28:39.045Z,5.63
2019-01-17T01:31:24.447Z,5.87
2019-01-17T01:34:17.655Z,6.73
2019-01-17T01:37:04.640Z,5.73
2019-01-17T01:39:50.036Z,5.70
2019-01-17T01:42:39.997Z,5.23
2019-01-17T01:45:30.953Z,6.27
2019-01-17T01:48:20.950Z,5.60
2019-01-17T01:51:07.965Z,5.90
2019-01-17T01:53:35.334Z,6.27
2019-01-17T01:56:02.795Z,5.43
2019-01-17T01:58:30.271Z,6.47
2019-01-17T02:00:57.643Z,5.50
2019-01-17T02:03:25.123Z,5.70
2019-01-17T02:05:52.515Z,5.97
2019-01-17T02:08:19.939Z,5.20
2019-01-17T02:10:47.322Z,7.10
2019-01-17T02:13:14.779Z,5.67
2019-01-17T02:15:42.241Z,5.57
2019-01-17T02:18:09.701Z,5.83
2019-01-17T02:20:37.352Z,7.17
2019-01-17T02:23:04.932Z,5.83
2019-01-17T02:25:32.408Z,5.60
2019-01-17T02:27:59.877Z,6.30
2019-01-17T02:30:27.325Z,6.23
2019-01-17T02:32:54.813Z,5.13
2019-01-17T02:35:22.272Z,5.60
2019-01-17T02:37:49.717Z,5.67
2019-01-17T02:40:17.146Z,5.60
2019-01-17T02:42:44.647Z,5.33
2019-01-17T02:45:13.482Z,4.80
2019-01-17T02:47:40.931Z,5.27
2019-01-17T02:50:09.093Z,4.83
2019-01-17T02:52:36.567Z,5.80
2019-01-17T02:55:04.862Z,5.63
2019-01-17T02:57:32.298Z,5.50
2019-01-17T02:59:59.779Z,4.77
2019-01-17T03:02:27.225Z,5.63
2019-01-17T03:04:54.687Z,4.83
2019-01-17T03:07:22.146Z,5.30
2019-01-17T03:09:49.617Z,5.30
2019-01-17T03:12:17.075Z,5.00
2019-01-17T03:14:44.552Z,4.53
2019-01-17T03:17:12.029Z,5.67
2019-01-17T03:19:39.699Z,5.87
2019-01-17T03:22:07.179Z,5.20
2019-01-17T03:24:34.498Z,4.87
2019-01-17T03:27:01.955Z,4.83
2019-01-17T03:29:29.447Z,5.43
2019-01-17T03:31:56.896Z,4.37
2019-01-17T03:34:24.393Z,4.67
2019-01-17T03:36:51.833Z,5.07
2019-01-17T03:39:19.154Z,5.47
2019-01-17T03:41:46.659Z,5.00
2019-01-17T03:44:14.096Z,4.60
2019-01-17T03:47:01.063Z,3.87
2019-01-17T03:49:28.871Z,4.70
2019-01-17T03:51:56.242Z,4.60
2019-01-17T03:54:23.747Z,4.87
2019-01-17T03:56:51.195Z,4.40
2019-01-17T03:59:18.662Z,4.33
2019-01-17T04:01:46.119Z,4.10
2019-01-17T04:04:13.580Z,4.20
2019-01-17T04:06:41.045Z,4.43
2019-01-17T04:09:08.503Z,4.50
2019-01-17T04:11:35.951Z,4.03
2019-01-17T04:14:03.817Z,4.10
2019-01-17T04:16:31.309Z,3.40
2019-01-17T04:18:58.771Z,5.00
2019-01-17T04:21:26.224Z,3.50
2019-01-17T04:23:53.708Z,3.57
2019-01-17T04:26:21.115Z,3.43
2019-01-17T04:28:48.578Z,3.60
2019-01-17T04:31:16.031Z,3.67
2019-01-17T04:33:43.374Z,4.03
2019-01-17T04:36:10.837Z,3.37
2019-01-17T04:38:38.279Z,3.53
2019-01-17T04:41:05.767Z,3.30
2019-01-17T04:43:33.188Z,2.37
2019-01-17T04:46:00.545Z,3.27
2019-01-17T04:48:27.885Z,3.20
2019-01-17T04:50:55.297Z,3.37
2019-01-17T04:53:22.775Z,2.30
2019-01-17T04:55:50.224Z,3.30
2019-01-17T04:58:17.707Z,3.43
2019-01-17T05:00:45.264Z,3.20
2019-01-17T05:03:12.635Z,5.30
2019-01-17T05:05:40.085Z,3.80
2019-01-17T05:08:07.469Z,3.90
2019-01-17T05:10:34.924Z,4.03
2019-01-17T05:13:02.359Z,3.13
2019-01-17T05:15:29.749Z,3.77
2019-01-17T05:17:57.180Z,3.97
2019-01-17T05:20:24.539Z,4.20
2019-01-17T05:22:51.883Z,3.90
2019-01-17T05:25:19.349Z,3.80
2019-01-17T05:27:46.832Z,3.43
2019-01-17T05:30:16.532Z,2.93
2019-01-17T05:32:44.007Z,4.37
2019-01-17T05:35:11.539Z,2.93
2019-01-17T05:37:38.981Z,3.10
2019-01-17T05:40:09.444Z,3.37
2019-01-17T05:42:36.824Z,2.87
2019-01-17T05:45:05.110Z,3.07
2019-01-17T05:47:32.528Z,2.97
2019-01-17T05:49:59.969Z,2.30
2019-01-17T05:52:27.418Z,2.30
2019-01-17T05:54:54.810Z,2.40
2019-01-17T05:57:22.260Z,1.63
2019-01-17T05:59:49.704Z,1.20
2019-01-17T06:02:17.186Z,0.90
2019-01-17T06:04:44.643Z,1.13
2019-01-17T06:07:12.034Z,1.20
2019-01-17T06:09:39.892Z,1.50
2019-01-17T06:12:07.362Z,1.00
2019-01-17T06:14:34.842Z,1.00
2019-01-17T06:17:02.340Z,1.07
2019-01-17T06:19:29.794Z,0.73
2019-01-17T06:21:57.172Z,1.20
2019-01-17T06:24:24.648Z,1.10
2019-01-17T06:26:52.028Z,1.17
2019-01-17T06:29:19.481Z,0.83
2019-01-17T06:31:46.930Z,0.97
2019-01-17T06:34:14.309Z,0.47
2019-01-17T06:36:41.793Z,0.77
2019-01-17T06:39:09.347Z,0.70
2019-01-17T06:41:36.715Z,0.60
2019-01-17T06:44:04.185Z,1.07
2019-01-17T06:46:31.556Z,0.90
2019-01-17T06:48:58.929Z,0.80
2019-01-17T06:51:26.744Z,0.87
2019-01-17T06:53:54.247Z,1.03
2019-01-17T06:56:21.682Z,1.00
2019-01-17T06:58:49.244Z,0.90
2019-01-17T07:01:16.671Z,1.10
2019-01-17T07:03:44.036Z,0.80
2019-01-17T07:06:11.416Z,0.93
2019-01-17T07:08:38.877Z,1.20
2019-01-17T07:11:06.300Z,0.63
2019-01-17T07:13:33.794Z,0.70
2019-01-17T07:16:01.234Z,1.10
2019-01-17T07:18:28.670Z,1.23
2019-01-17T07:20:56.127Z,0.67
2019-01-17T07:23:23.587Z,1.20
2019-01-17T07:25:51.072Z,1.00
2019-01-17T07:28:18.430Z,0.67
2019-01-17T07:30:45.856Z,0.80
2019-01-17T07:33:13.241Z,1.57
2019-01-17T07:35:40.753Z,0.83
2019-01-17T07:38:08.220Z,0.40
2019-01-17T07:40:35.657Z,0.83
2019-01-17T07:43:03.036Z,0.77
2019-01-17T07:45:30.634Z,0.57
2019-01-17T07:47:58.130Z,0.60
2019-01-17T07:50:25.585Z,0.83
2019-01-17T07:52:53.039Z,0.70
2019-01-17T07:55:20.486Z,0.67
2019-01-17T07:57:47.908Z,0.57
2019-01-17T08:00:17.689Z,0.60
2019-01-17T08:02:45.129Z,0.60
2019-01-17T08:05:12.730Z,0.80
2019-01-17T08:07:40.268Z,0.77
2019-01-17T08:10:09.689Z,0.90
2019-01-17T08:12:37.171Z,1.10
2019-01-17T08:15:04.897Z,1.00
2019-01-17T08:17:32.269Z,1.40
2019-01-17T08:19:59.629Z,1.50
2019-01-17T08:22:27.006Z,1.27
2019-01-17T08:24:54.371Z,1.20
2019-01-17T08:27:21.719Z,1.20
2019-01-17T08:29:49.206Z,0.80
2019-01-17T08:32:16.638Z,0.90
2019-01-17T08:34:44.109Z,1.10
2019-01-17T08:37:11.663Z,1.13
2019-01-17T08:39:39.047Z,0.80
2019-01-17T08:42:06.495Z,0.93
2019-01-17T08:44:33.947Z,0.60
2019-01-17T08:47:01.288Z,1.20
2019-01-17T08:49:28.729Z,1.30
2019-01-17T08:51:56.157Z,0.90
2019-01-17T08:54:23.629Z,1.03
2019-01-17T08:56:51.041Z,0.97
2019-01-17T08:59:18.386Z,0.73
2019-01-17T09:01:45.848Z,0.80
2019-01-17T09:04:13.165Z,0.80
2019-01-17T09:06:40.535Z,0.50
2019-01-17T09:09:08.839Z,0.50
2019-01-17T09:11:36.299Z,1.00
2019-01-17T09:14:03.949Z,0.80
2019-01-17T09:16:31.305Z,1.03
2019-01-17T09:18:58.803Z,0.70
2019-01-17T09:21:26.249Z,0.80
2019-01-17T09:23:53.699Z,0.93
2019-01-17T09:26:21.037Z,0.70
2019-01-17T09:28:48.498Z,1.10
2019-01-17T09:31:15.865Z,0.80
2019-01-17T09:33:43.202Z,1.90
2019-01-17T09:36:10.660Z,0.70
2019-01-17T09:38:38.091Z,0.80
2019-01-17T09:41:05.454Z,1.10
2019-01-17T09:43:32.933Z,1.00
2019-01-17T09:46:00.284Z,0.80
2019-01-17T09:48:27.720Z,0.73
2019-01-17T09:50:55.188Z,0.87
2019-01-17T09:53:26.046Z,1.07
2019-01-17T09:55:53.478Z,1.07
2019-01-17T09:58:20.953Z,1.90
2019-01-17T10:00:48.285Z,1.20
2019-01-17T10:03:15.720Z,1.10
2019-01-17T10:05:43.084Z,1.80
2019-01-17T10:08:10.537Z,2.20
2019-01-17T10:10:38.034Z,1.90
2019-01-17T10:13:05.494Z,2.57
2019-01-17T10:15:42.450Z,2.80
2019-01-17T10:18:46.228Z,1.93
2019-01-17T10:21:53.602Z,2.07
2019-01-17T10:24:45.507Z,2.23
2019-01-17T10:27:51.380Z,2.13
2019-01-17T10:30:42.073Z,1.97
2019-01-17T10:33:44.304Z,2.17
2019-01-17T10:36:49.564Z,2.47
2019-01-17T10:39:53.856Z,2.47
2019-01-17T10:42:59.167Z,2.13
2019-01-17T10:46:05.816Z,2.33
2019-01-17T10:49:33.192Z,2.97
2019-01-17T10:52:51.383Z,1.20
2019-01-17T10:55:35.627Z,2.50
2019-01-17T10:58:22.328Z,1.33
2019-01-17T11:05:13.586Z,0.60
2019-01-17T11:08:10.950Z,0.67
2019-01-17T11:11:35.704Z,0.80
2019-01-17T11:14:41.825Z,0.20
2019-01-17T11:17:35.910Z,0.40
2019-01-17T11:20:10.716Z,0.30
2019-01-17T11:23:09.574Z,0.30
2019-01-17T11:26:11.150Z,0.00
2019-01-17T11:29:15.642Z,0.00
2019-01-17T11:32:13.208Z,0.20
2019-01-17T11:35:21.730Z,0.40
2019-01-17T11:38:28.191Z,0.27
2019-01-17T11:41:32.664Z,0.30
2019-01-17T11:44:32.655Z,0.70
2019-01-17T11:47:47.029Z,0.23
2019-01-17T11:50:40.539Z,0.30
2019-01-17T11:53:35.869Z,0.13
2019-01-17T11:56:22.247Z,0.50
2019-01-17T11:59:30.558Z,0.37
2019-01-17T12:02:43.859Z,0.53
2019-01-17T12:05:11.315Z,0.57
2019-01-17T12:07:38.768Z,0.50
2019-01-17T12:10:07.120Z,0.43
2019-01-17T12:12:34.766Z,0.90
2019-01-17T12:15:02.230Z,1.30
2019-01-17T12:17:29.715Z,0.37
2019-01-17T12:19:57.132Z,0.40
2019-01-17T12:22:24.863Z,1.03
2019-01-17T12:24:52.348Z,0.80
2019-01-17T12:27:19.709Z,0.67
2019-01-17T12:29:47.164Z,0.30
2019-01-17T12:32:14.653Z,0.87
2019-01-17T12:35:01.567Z,0.70
2019-01-17T12:37:28.941Z,0.60
2019-01-17T12:39:56.379Z,1.50
2019-01-17T12:42:23.860Z,1.10
2019-01-17T12:44:51.513Z,1.23
2019-01-17T12:47:18.851Z,0.87
2019-01-17T12:49:49.562Z,0.80
2019-01-17T12:52:17.001Z,0.73
2019-01-17T12:54:44.366Z,0.93
2019-01-17T12:57:11.702Z,1.20
2019-01-17T12:59:39.135Z,1.13
2019-01-17T13:02:06.499Z,1.03
2019-01-17T13:04:33.849Z,1.27
2019-01-17T13:07:01.226Z,1.00
2019-01-17T13:09:30.387Z,1.30
2019-01-17T13:11:57.831Z,1.40
2019-01-17T13:14:25.293Z,1.10
2019-01-17T13:16:52.723Z,1.13
2019-01-17T13:19:20.048Z,0.83
2019-01-17T13:21:47.485Z,1.30
2019-01-17T13:24:14.873Z,0.87
2019-01-17T13:26:42.315Z,0.67
2019-01-17T13:29:09.781Z,1.07
2019-01-17T13:31:37.276Z,0.97
2019-01-17T13:34:04.739Z,0.87
2019-01-17T13:36:32.109Z,1.20
2019-01-17T13:38:59.551Z,0.50
2019-01-17T13:41:27.040Z,0.80
2019-01-17T13:43:54.559Z,0.80
2019-01-17T13:46:22.041Z,1.23
2019-01-17T13:48:49.494Z,0.87
2019-01-17T13:51:16.917Z,0.93
2019-01-17T13:53:44.399Z,1.27
2019-01-17T13:56:11.842Z,1.03
2019-01-17T13:58:39.309Z,0.97
2019-01-17T14:01:06.820Z,0.93
2019-01-17T14:03:34.309Z,0.80
2019-01-17T14:06:01.776Z,0.73
2019-01-17T14:08:30.611Z,0.70
2019-01-17T14:10:58.183Z,0.60
2019-01-17T14:13:25.553Z,0.77
2019-01-17T14:15:52.945Z,1.33
2019-01-17T14:18:20.423Z,1.27
2019-01-17T14:20:47.931Z,0.60
2019-01-17T14:23:15.415Z,0.67
2019-01-17T14:25:44.989Z,1.00
2019-01-17T14:28:12.441Z,1.93
2019-01-17T14:30:39.877Z,1.20
2019-01-17T14:33:07.296Z,1.07
2019-01-17T14:35:34.767Z,1.00
2019-01-17T14:38:02.173Z,1.10
2019-01-17T14:40:29.655Z,0.77
2019-01-17T14:42:57.048Z,1.27
2019-01-17T14:45:24.531Z,1.53
2019-01-17T14:47:52.011Z,0.87
2019-01-17T14:50:29.189Z,0.93
2019-01-17T14:52:56.995Z,0.70
2019-01-17T14:57:54.919Z,0.97
2019-01-17T15:00:25.172Z,2.00
2019-01-17T15:05:29.135Z,1.20
2019-01-17T15:07:56.627Z,0.73
2019-01-17T15:10:38.268Z,0.60
2019-01-17T15:13:05.727Z,1.33
2019-01-17T15:15:33.332Z,0.90
2019-01-17T15:18:00.814Z,1.10
2019-01-17T15:20:28.288Z,0.83
2019-01-17T15:22:55.662Z,1.00
2019-01-17T15:25:23.086Z,1.13
2019-01-17T15:27:50.552Z,1.73
2019-01-17T15:30:20.210Z,1.20
2019-01-17T15:32:47.928Z,1.10
2019-01-17T15:35:15.462Z,1.17
2019-01-17T15:37:42.935Z,1.00
2019-01-17T15:40:16.112Z,1.10
2019-01-17T15:42:43.585Z,0.70
2019-01-17T15:45:11.190Z,0.93
2019-01-17T15:47:38.712Z,0.80
2019-01-17T15:50:06.666Z,1.43
2019-01-17T15:52:34.238Z,0.97
2019-01-17T15:55:01.741Z,0.60
2019-01-17T15:57:33.880Z,0.97
2019-01-17T15:59:58.486Z,1.20
2019-01-17T16:02:29.336Z,0.80
2019-01-17T16:04:56.836Z,1.63
2019-01-17T16:07:24.282Z,0.90
2019-01-17T16:09:51.679Z,1.17
2019-01-17T16:12:20.046Z,1.60
2019-01-17T16:14:47.554Z,1.07
2019-01-17T16:17:15.054Z,1.23
2019-01-17T16:19:44.370Z,1.00
2019-01-17T16:22:11.940Z,0.90
2019-01-17T16:24:39.422Z,0.93
2019-01-17T16:27:08.110Z,0.77
2019-01-17T16:29:35.580Z,1.40
2019-01-17T16:34:36.234Z,1.20
2019-01-17T16:37:03.728Z,0.93
2019-01-17T16:39:33.433Z,1.30
2019-01-17T16:42:00.931Z,1.83
2019-01-17T16:44:28.436Z,1.40
2019-01-17T16:46:55.873Z,1.30
2019-01-17T16:49:23.325Z,1.70
2019-01-17T16:51:50.740Z,1.50
2019-01-17T16:54:18.166Z,2.10
2019-01-17T16:56:45.688Z,1.77
2019-01-17T16:59:13.123Z,0.97
2019-01-17T17:01:40.592Z,1.10
2019-01-17T17:04:08.052Z,0.87
2019-01-17T17:06:35.532Z,0.77
2019-01-17T17:09:06.792Z,1.20
2019-01-17T17:11:34.173Z,1.27
2019-01-17T17:14:01.554Z,0.80
2019-01-17T17:16:28.954Z,0.80
2019-01-17T17:18:58.178Z,0.73
2019-01-17T17:21:27.893Z,1.17
2019-01-17T17:23:56.610Z,1.00
2019-01-17T17:26:25.296Z,0.87
2019-01-17T17:28:52.971Z,1.20
2019-01-17T17:31:22.732Z,1.50
2019-01-17T17:33:50.232Z,1.13
2019-01-17T17:36:22.162Z,1.23
2019-01-17T17:38:49.700Z,0.70
2019-01-17T17:41:17.169Z,0.50
2019-01-17T17:43:44.674Z,0.40
2019-01-17T17:46:12.793Z,0.70
2019-01-17T17:51:17.508Z,0.40
2019-01-17T17:53:50.003Z,0.60
2019-01-17T17:56:17.619Z,1.17
2019-01-17T17:58:45.195Z,0.40
2019-01-17T18:04:30.835Z,0.60
2019-01-17T18:06:58.913Z,1.63
2019-01-17T18:09:35.887Z,0.67
2019-01-17T18:14:54.760Z,1.20
2019-01-17T18:17:27.903Z,0.87
2019-01-17T18:19:55.343Z,1.73
2019-01-17T18:22:22.911Z,1.60
2019-01-17T18:24:50.497Z,1.10
2019-01-17T18:27:23.782Z,0.90
2019-01-17T18:29:58.750Z,1.33
2019-01-17T18:32:26.309Z,1.00
2019-01-17T18:34:53.684Z,1.30
2019-01-17T18:37:23.426Z,0.90
2019-01-17T18:39:50.923Z,0.80
2019-01-17T18:42:18.361Z,1.00
2019-01-17T18:44:45.787Z,0.90
2019-01-17T18:47:13.257Z,0.60
2019-01-17T18:49:45.711Z,0.80
2019-01-17T18:52:13.203Z,1.70
2019-01-17T18:54:40.845Z,1.23
2019-01-17T18:57:08.411Z,1.40
2019-01-17T18:59:35.873Z,1.13
2019-01-17T19:02:03.448Z,1.37
2019-01-17T19:04:30.916Z,1.33
2019-01-17T19:06:58.789Z,1.00
2019-01-17T19:09:26.269Z,1.77
2019-01-17T19:11:53.707Z,1.30
2019-01-17T19:14:21.198Z,1.23
2019-01-17T19:16:48.659Z,1.30
2019-01-17T19:19:16.011Z,2.33
2019-01-17T19:21:43.529Z,1.30
2019-01-17T19:24:11.017Z,1.63
2019-01-17T19:26:38.485Z,1.80
2019-01-17T19:29:05.957Z,1.30
2019-01-17T19:31:33.321Z,1.20
2019-01-17T19:34:00.709Z,1.70
2019-01-17T19:36:28.161Z,1.23
2019-01-17T19:38:55.543Z,2.00
2019-01-17T19:41:22.929Z,2.00
2019-01-17T19:43:50.316Z,1.53
2019-01-17T19:46:17.749Z,1.77
2019-01-17T19:48:45.091Z,1.10
2019-01-17T19:51:12.598Z,1.60
2019-01-17T19:53:40.036Z,0.77
2019-01-17T19:59:06.222Z,0.83
2019-01-17T20:01:33.678Z,1.00
2019-01-17T20:04:01.152Z,1.30
2019-01-17T20:06:28.641Z,0.90
2019-01-17T20:08:57.547Z,1.23
2019-01-17T20:11:25.030Z,1.33
2019-01-17T20:13:52.520Z,1.77
2019-01-17T20:16:19.958Z,1.27
2019-01-17T20:18:47.432Z,0.50
2019-01-17T20:21:14.917Z,0.50
2019-01-17T20:23:42.331Z,0.90
2019-01-17T20:26:09.752Z,0.67
2019-01-17T20:28:40.898Z,1.20
2019-01-17T20:31:08.404Z,0.57
2019-01-17T20:33:35.900Z,0.90
2019-01-17T20:36:04.061Z,1.37
2019-01-17T20:38:31.568Z,1.20
2019-01-17T20:40:59.005Z,1.70
2019-01-17T20:43:26.384Z,0.50
2019-01-17T20:45:53.874Z,1.10
2019-01-17T20:48:21.354Z,2.07
2019-01-17T20:50:48.858Z,0.73
2019-01-17T20:53:17.502Z,1.10
2019-01-17T20:55:45.163Z,0.53
2019-01-17T20:58:12.531Z,1.17
2019-01-17T21:00:44.620Z,1.70
2019-01-17T21:03:14.784Z,1.13
2019-01-17T21:05:42.241Z,1.00
2019-01-17T21:08:09.655Z,2.10
2019-01-17T21:10:37.154Z,1.27
2019-01-17T21:13:04.611Z,1.80
2019-01-17T21:15:31.966Z,1.00
2019-01-17T21:17:59.418Z,1.00
2019-01-17T21:20:26.824Z,1.50
2019-01-17T21:22:54.294Z,0.73
2019-01-17T21:25:21.772Z,0.83
2019-01-17T21:27:49.210Z,1.03
2019-01-17T21:30:19.220Z,0.67
2019-01-17T21:32:46.711Z,0.67
2019-01-17T21:35:14.186Z,1.00
2019-01-17T21:37:41.661Z,0.40
2019-01-17T21:40:11.712Z,0.50
2019-01-17T21:42:39.172Z,0.30
2019-01-17T21:45:09.108Z,1.23
2019-01-17T21:47:36.554Z,0.73
2019-01-17T21:50:07.470Z,0.80
2019-01-17T21:52:34.936Z,0.80
2019-01-17T21:55:02.352Z,0.73
2019-01-17T21:57:29.832Z,0.90
2019-01-17T21:59:57.164Z,0.83
2019-01-17T22:02:24.565Z,0.50
2019-01-17T22:04:51.994Z,0.53
2019-01-17T22:07:19.378Z,0.40
2019-01-17T22:09:46.861Z,0.40
2019-01-17T22:12:14.346Z,0.70
2019-01-17T22:14:41.799Z,0.57
2019-01-17T22:17:09.248Z,0.60
2019-01-17T22:19:36.629Z,0.30
2019-01-17T22:22:06.088Z,1.03
2019-01-17T22:24:33.443Z,0.60
2019-01-17T22:27:02.559Z,0.30
2019-01-17T22:29:30.044Z,0.50
2019-01-17T22:31:57.532Z,0.47
2019-01-17T22:34:24.913Z,0.50
2019-01-17T22:36:52.298Z,0.60
2019-01-17T22:39:20.760Z,0.33
2019-01-17T22:41:48.158Z,0.43
2019-01-17T22:44:15.724Z,0.63
2019-01-17T22:46:43.146Z,0.33
2019-01-17T22:49:10.616Z,0.43
2019-01-17T22:51:37.959Z,0.83
2019-01-17T22:54:05.423Z,0.47
2019-01-17T22:56:32.920Z,0.43
2019-01-17T22:59:00.364Z,0.67
2019-01-17T23:01:28.616Z,0.30
2019-01-17T23:03:57.808Z,0.47
2019-01-17T23:06:25.197Z,0.70
2019-01-17T23:08:52.648Z,0.77
2019-01-17T23:11:20.091Z,1.27
2019-01-17T23:13:47.567Z,0.83
2019-01-17T23:16:15.014Z,0.60
2019-01-17T23:18:42.460Z,0.50
2019-01-17T23:21:09.920Z,0.87
2019-01-17T23:23:38.428Z,0.70
2019-01-17T23:26:05.977Z,0.60
2019-01-17T23:28:33.460Z,0.90
2019-01-17T23:31:00.948Z,0.40
2019-01-17T23:33:28.399Z,0.60
2019-01-17T23:35:55.879Z,1.10
2019-01-17T23:38:23.229Z,0.90
2019-01-17T23:40:50.681Z,0.97
2019-01-17T23:43:18.119Z,0.53
2019-01-17T23:45:45.579Z,0.70
2019-01-17T23:48:13.065Z,1.97
2019-01-17T23:50:40.512Z,2.37
2019-01-17T23:53:07.993Z,2.90
2019-01-17T23:55:35.435Z,2.60
2019-01-17T23:58:02.787Z,1.20
